EDT,Max TemperatureF,Mean TemperatureF,Min TemperatureF,Max Dew PointF,MeanDew PointF,Min DewpointF,Max Humidity, Mean Humidity, Min Humidity, Max Sea Level PressureIn, Mean Sea Level PressureIn, Min Sea Level PressureIn, Max VisibilityMiles, Mean VisibilityMiles, Min VisibilityMiles, Max Wind SpeedMPH, Mean Wind SpeedMPH, Max Gust SpeedMPH,PrecipitationIn, CloudCover, Events, WindDirDegrees
2014-3-1,36,28,20,25,19,12,85,70,54,30.27,30.17,30.07,10,7,2,17,8,22,0.03,7,Rain-Snow,312
2014-3-2,21,17,13,18,12,7,92,80,67,30.36,30.27,30.21,10,4,0,15,7,16,0.30,8,Fog-Snow,22
2014-3-3,14,6,-3,7,-5,-10,80,63,46,30.52,30.45,30.31,10,10,9,17,7,21,T,4,,61
2014-3-4,22,11,-1,11,3,-6,80,66,52,30.45,30.31,30.19,10,10,9,6,3,8,0.00,7,,175
2014-3-5,22,13,4,16,11,0,88,75,61,30.47,30.39,30.27,10,6,1,21,10,26,0.04,7,Snow,69
2014-3-6,26,20,14,16,11,8,80,74,67,30.47,30.34,30.19,10,10,10,20,11,25,0.00,4,,74
2014-3-7,45,26,7,31,19,6,100,76,52,30.15,30.05,29.96,10,8,4,14,3,14,0.00,3,,131
2014-3-8,38,33,27,32,29,21,96,86,75,30.23,30.09,29.96,10,4,0,16,7,19,0.09,8,Fog-Rain-Snow,323
2014-3-9,37,26,15,29,22,12,92,78,64,30.31,30.17,29.94,10,9,5,17,10,20,0.00,4,,243
2014-3-10,52,44,35,40,34,29,85,73,61,29.94,29.78,29.68,10,9,7,21,13,26,T,6,Rain,231
2014-3-11,54,45,36,44,38,32,92,79,65,29.72,29.69,29.65,10,6,4,18,6,23,0.00,7,,264
2014-3-12,39,26,13,34,27,8,100,82,63,30.06,29.65,29.48,10,4,0,32,18,42,0.91,8,Fog-Rain-Snow-Thunderstorm,1
2014-3-13,32,15,0,21,9,-2,91,71,42,30.24,30.13,30.01,10,10,10,16,8,,0.00,3,,238
2014-3-14,52,42,31,37,29,21,72,61,50,29.99,29.81,29.67,10,10,10,32,18,41,0.00,3,,228
2014-3-15,43,37,30,31,28,22,89,71,53,30.23,30.05,29.86,10,10,10,20,11,24,0.00,4,,300
2014-3-16,31,24,16,20,11,6,68,61,53,30.34,30.25,30.18,10,10,10,29,19,33,T,6,Snow,53
2014-3-17,34,23,12,23,14,7,81,68,54,30.14,30.00,29.91,10,10,10,20,12,24,0.00,2,,72
2014-3-18,51,37,22,36,29,19,92,74,56,30.00,29.93,29.81,10,10,7,18,9,21,0.00,4,,112
2014-3-19,50,43,35,46,38,30,89,84,79,29.96,29.77,29.66,10,8,2,31,17,41,0.05,8,Rain,212
2014-3-20,44,38,31,31,27,25,75,67,58,30.08,30.03,29.96,10,9,3,24,11,29,T,6,Snow,277
2014-3-21,56,43,30,40,32,25,92,71,50,30.09,29.96,29.71,10,8,2,22,9,30,0.01,6,Snow,109
2014-3-22,53,42,30,39,30,23,79,65,50,30.25,30.05,29.72,10,9,5,26,11,32,T,7,Rain,312
2014-3-23,34,27,20,22,13,8,75,59,43,30.40,30.35,30.27,10,10,10,16,9,24,0.00,4,,340
2014-3-24,35,26,16,15,12,7,74,58,41,30.39,30.30,30.15,10,10,10,17,6,23,0.00,3,,289
2014-3-25,33,25,17,24,18,9,84,65,46,30.24,30.05,29.96,10,7,0,28,11,38,0.03,7,Fog-Snow,297
2014-3-26,36,25,14,19,13,10,88,64,40,30.40,30.30,30.20,10,10,10,15,6,20,T,3,,207
2014-3-27,49,40,30,39,27,18,79,65,51,30.19,29.96,29.68,10,10,7,25,15,34,0.13,8,Rain-Snow,174
2014-3-28,51,43,35,45,38,29,86,76,66,30.19,29.88,29.61,10,8,2,32,18,42,0.05,8,Rain,259
2014-3-29,40,35,29,32,30,25,89,77,64,30.20,30.12,30.05,10,6,0,21,11,24,0.26,7,Fog-Rain-Snow,30
2014-3-30,53,39,25,31,25,20,85,60,35,30.27,30.20,30.14,10,10,9,12,6,15,0.00,0,,299
2014-3-31,65,48,30,36,32,27,85,58,31,30.19,30.10,29.93,10,10,10,21,9,26,0.00,5,,149